Time;durP1;ratioP1;P1;durP2;ratioP2;P2;SDS_P1;SDS_P2;PMS_P1;PMS_P2;Temp;Humidity;BMP_temperature;BMP_pressure;BME280_temperature;BME280_humidity;BME280_pressure;Samples;Min_cycle;Max_cycle;Signal;HPM_P1;HPM_P2
2023/06/06 00:00:11;;;;;;;4.60;3.50;;;;;;;;;;5053141;28;20226;-78
2023/06/06 00:02:41;;;;;;;4.72;3.30;;;;;;;;;;5037083;28;20202;-78
2023/06/06 00:05:11;;;;;;;4.40;3.05;;;;;;;;;;5045359;28;20312;-78
2023/06/06 00:07:39;;;;;;;3.58;3.28;;;;;;;;;;5037481;28;20257;-78
2023/06/06 00:10:07;;;;;;;3.90;3.60;;;;;;;;;;5039199;28;20250;-78
2023/06/06 00:12:34;;;;;;;6.13;3.47;;;;;;;;;;5038390;28;20229;-78
2023/06/06 00:15:01;;;;;;;5.07;3.60;;;;;;;;;;5034732;28;20234;-78
2023/06/06 00:17:28;;;;;;;3.33;3.03;;;;;;;;;;5051016;28;20640;-78
2023/06/06 00:19:56;;;;;;;4.63;3.33;;;;;;;;;;5048042;28;20222;-78
2023/06/06 00:22:24;;;;;;;3.80;3.27;;;;;;;;;;5044709;28;20621;-78
2023/06/06 00:24:51;;;;;;;4.47;3.47;;;;;;;;;;5040139;28;20222;-78
2023/06/06 00:27:19;;;;;;;5.47;3.97;;;;;;;;;;5045332;28;20227;-78
2023/06/06 00:29:46;;;;;;;4.93;3.20;;;;;;;;;;5032764;28;20276;-78
2023/06/06 00:32:13;;;;;;;3.40;3.10;;;;;;;;;;5043472;28;20226;-78
2023/06/06 00:34:40;;;;;;;5.00;3.23;;;;;;;;;;5033568;28;20763;-78
2023/06/06 00:37:07;;;;;;;5.13;3.50;;;;;;;;;;5048118;28;20226;-78
2023/06/06 00:39:35;;;;;;;3.63;3.30;;;;;;;;;;5052741;28;20320;-78
2023/06/06 00:42:02;;;;;;;3.97;3.50;;;;;;;;;;5047471;28;20203;-78
2023/06/06 00:44:29;;;;;;;4.30;3.47;;;;;;;;;;5049370;28;20237;-78
2023/06/06 00:46:56;;;;;;;6.40;3.60;;;;;;;;;;5040015;28;20222;-78
2023/06/06 00:49:24;;;;;;;4.20;3.80;;;;;;;;;;5041243;28;20242;-78
2023/06/06 00:51:51;;;;;;;4.60;3.60;;;;;;;;;;5040385;28;20246;-78
2023/06/06 00:54:19;;;;;;;5.70;3.67;;;;;;;;;;5040842;28;20199;-78
2023/06/06 00:56:48;;;;;;;3.70;3.40;;;;;;;;;;5041233;28;20269;-78
2023/06/06 00:59:16;;;;;;;4.47;4.03;;;;;;;;;;5046398;28;20202;-78
2023/06/06 01:01:48;;;;;;;10.00;3.73;;;;;;;;;;5052311;28;20203;-79
2023/06/06 01:04:17;;;;;;;4.73;3.83;;;;;;;;;;5043156;28;20311;-78
2023/06/06 01:06:44;;;;;;;5.17;3.63;;;;;;;;;;5047432;28;20622;-78
2023/06/06 01:09:11;;;;;;;5.07;3.50;;;;;;;;;;5042755;28;20253;-78
2023/06/06 01:11:45;;;;;;;4.53;3.70;;;;;;;;;;5048625;28;20792;-78
2023/06/06 01:14:18;;;;;;;4.30;3.30;;;;;;;;;;5046963;28;20230;-78
2023/06/06 01:16:49;;;;;;;5.27;3.53;;;;;;;;;;5037028;28;20230;-78
2023/06/06 01:19:20;;;;;;;3.70;3.40;;;;;;;;;;5044931;28;20253;-78
2023/06/06 01:21:51;;;;;;;4.10;3.70;;;;;;;;;;5043789;28;20202;-78
2023/06/06 01:24:20;;;;;;;3.60;3.30;;;;;;;;;;5044459;28;20199;-78
2023/06/06 01:26:47;;;;;;;5.50;3.87;;;;;;;;;;5040988;28;20234;-78
2023/06/06 01:29:14;;;;;;;4.67;3.70;;;;;;;;;;5038443;28;20654;-77
2023/06/06 01:31:42;;;;;;;4.50;4.10;;;;;;;;;;5050658;28;20276;-78
2023/06/06 01:34:12;;;;;;;4.30;3.90;;;;;;;;;;5043444;28;20618;-78
2023/06/06 01:36:42;;;;;;;4.83;4.23;;;;;;;;;;5044052;28;20202;-78
2023/06/06 01:39:13;;;;;;;4.23;3.83;;;;;;;;;;5051822;28;20209;-77
2023/06/06 01:41:41;;;;;;;4.10;3.70;;;;;;;;;;5043416;28;20202;-78
2023/06/06 01:44:09;;;;;;;7.00;3.93;;;;;;;;;;5043459;28;20210;-77
2023/06/06 01:46:36;;;;;;;5.20;3.73;;;;;;;;;;5033444;28;20661;-78
2023/06/06 01:49:04;;;;;;;5.27;3.63;;;;;;;;;;5043641;28;20198;-77
2023/06/06 01:51:31;;;;;;;3.87;3.50;;;;;;;;;;5043406;28;20203;-78
2023/06/06 01:53:59;;;;;;;4.63;3.70;;;;;;;;;;5042435;28;20204;-78
2023/06/06 01:56:33;;;;;;;5.10;4.53;;;;;;;;;;5036563;28;20780;-78
2023/06/06 01:59:00;;;;;;;6.17;3.90;;;;;;;;;;5042214;28;20253;-78
2023/06/06 02:01:28;;;;;;;4.00;3.70;;;;;;;;;;5039284;28;20595;-78
2023/06/06 02:03:55;;;;;;;4.77;4.37;;;;;;;;;;5040051;28;20229;-78
2023/06/06 02:06:22;;;;;;;6.70;4.20;;;;;;;;;;5042692;28;20263;-78
2023/06/06 02:08:50;;;;;;;4.63;4.10;;;;;;;;;;5042978;28;20237;-78
2023/06/06 02:11:17;;;;;;;5.17;4.07;;;;;;;;;;5040753;28;20230;-78
2023/06/06 02:13:47;;;;;;;3.97;3.67;;;;;;;;;;5045465;28;20225;-78
2023/06/06 02:16:15;;;;;;;8.17;4.43;;;;;;;;;;5039503;28;20226;-78
2023/06/06 02:18:44;;;;;;;4.40;4.00;;;;;;;;;;5042635;28;20237;-78
2023/06/06 02:21:11;;;;;;;7.93;4.90;;;;;;;;;;5035514;28;20227;-78
2023/06/06 02:23:38;;;;;;;5.20;4.70;;;;;;;;;;5039725;28;20619;-78
2023/06/06 02:26:05;;;;;;;4.17;3.83;;;;;;;;;;5040725;28;20286;-78
2023/06/06 02:28:32;;;;;;;5.20;4.50;;;;;;;;;;5042752;28;20237;-78
2023/06/06 02:31:02;;;;;;;6.93;4.30;;;;;;;;;;5046570;28;20718;-78
2023/06/06 02:33:29;;;;;;;4.53;4.13;;;;;;;;;;5047643;28;20248;-78
2023/06/06 02:35:56;;;;;;;4.07;3.67;;;;;;;;;;5034223;28;20771;-78
2023/06/06 02:38:23;;;;;;;4.43;4.03;;;;;;;;;;5046896;28;20228;-78
2023/06/06 02:40:50;;;;;;;4.70;4.10;;;;;;;;;;5035884;28;20317;-78
2023/06/06 02:43:17;;;;;;;4.67;4.27;;;;;;;;;;5043001;28;20202;-78
2023/06/06 02:45:45;;;;;;;4.80;4.30;;;;;;;;;;5032143;28;20234;-78
2023/06/06 02:48:13;;;;;;;4.27;3.87;;;;;;;;;;5041173;28;20256;-78
2023/06/06 02:50:40;;;;;;;4.20;3.80;;;;;;;;;;5040730;28;20226;-78
2023/06/06 02:53:07;;;;;;;4.70;4.30;;;;;;;;;;5035740;28;20230;-78
2023/06/06 02:55:34;;;;;;;3.70;3.40;;;;;;;;;;5039917;28;20230;-78
2023/06/06 02:58:01;;;;;;;6.30;4.23;;;;;;;;;;5046649;28;20226;-78
2023/06/06 03:00:28;;;;;;;6.17;4.27;;;;;;;;;;5047122;28;20760;-78
2023/06/06 03:02:55;;;;;;;6.53;4.03;;;;;;;;;;5048597;28;20205;-78
2023/06/06 03:05:28;;;;;;;5.60;4.30;;;;;;;;;;5042668;28;20222;-78
2023/06/06 03:07:56;;;;;;;5.47;4.40;;;;;;;;;;5045344;28;20730;-78
2023/06/06 03:10:23;;;;;;;3.73;3.43;;;;;;;;;;5047423;28;20483;-78
2023/06/06 03:12:50;;;;;;;4.33;3.70;;;;;;;;;;5043549;28;20230;-77
2023/06/06 03:15:17;;;;;;;5.50;4.50;;;;;;;;;;5035785;28;20231;-77
2023/06/06 03:17:44;;;;;;;4.93;4.43;;;;;;;;;;5052972;28;20272;-78
2023/06/06 03:20:13;;;;;;;4.93;4.53;;;;;;;;;;5054241;28;20221;-78
2023/06/06 03:22:41;;;;;;;4.67;4.27;;;;;;;;;;5054472;28;20205;-78
2023/06/06 03:25:09;;;;;;;5.83;4.30;;;;;;;;;;5045878;28;20757;-78
2023/06/06 03:27:36;;;;;;;4.70;4.20;;;;;;;;;;5045601;28;20222;-78
2023/06/06 03:30:06;;;;;;;5.10;3.87;;;;;;;;;;5043442;28;20905;-77
2023/06/06 03:32:33;;;;;;;4.00;3.60;;;;;;;;;;5054115;28;20230;-78
2023/06/06 03:35:00;;;;;;;5.93;4.47;;;;;;;;;;5048319;28;20597;-78
2023/06/06 03:37:27;;;;;;;4.60;4.20;;;;;;;;;;5042687;28;20222;-78
2023/06/06 03:39:55;;;;;;;4.10;3.70;;;;;;;;;;5046593;28;20696;-78
2023/06/06 03:42:22;;;;;;;4.53;4.03;;;;;;;;;;5045923;28;20259;-78
2023/06/06 03:44:49;;;;;;;5.37;4.27;;;;;;;;;;5042127;28;20258;-77
2023/06/06 03:47:16;;;;;;;7.77;4.23;;;;;;;;;;5045951;28;20266;-78
2023/06/06 03:49:43;;;;;;;4.17;3.80;;;;;;;;;;5043315;28;20246;-78
2023/06/06 03:52:11;;;;;;;5.10;3.70;;;;;;;;;;5040008;28;20202;-78
2023/06/06 03:54:38;;;;;;;4.70;4.30;;;;;;;;;;5050841;28;20236;-78
2023/06/06 03:57:10;;;;;;;4.63;4.23;;;;;;;;;;5045411;28;20226;-78
2023/06/06 03:59:37;;;;;;;4.97;4.23;;;;;;;;;;5044632;28;20250;-78
2023/06/06 04:02:04;;;;;;;6.10;4.37;;;;;;;;;;5038367;28;20316;-78
2023/06/06 04:04:32;;;;;;;5.60;4.23;;;;;;;;;;5047146;28;20319;-77
2023/06/06 04:06:59;;;;;;;5.50;4.23;;;;;;;;;;5045499;28;20229;-77
2023/06/06 04:09:26;;;;;;;4.57;4.17;;;;;;;;;;5045948;28;20364;-78
2023/06/06 04:11:53;;;;;;;4.83;4.33;;;;;;;;;;5044308;28;21095;-78
2023/06/06 04:14:21;;;;;;;5.40;4.07;;;;;;;;;;5044826;28;20676;-77
2023/06/06 04:16:48;;;;;;;5.30;4.20;;;;;;;;;;5038865;28;20198;-77
2023/06/06 04:19:15;;;;;;;4.40;4.00;;;;;;;;;;5041172;28;20286;-77
2023/06/06 04:21:42;;;;;;;5.17;4.63;;;;;;;;;;5046976;28;20202;-77
2023/06/06 04:24:10;;;;;;;6.23;4.40;;;;;;;;;;5053175;28;20610;-77
2023/06/06 04:26:38;;;;;;;5.23;4.30;;;;;;;;;;5044600;28;20217;-77
2023/06/06 04:29:05;;;;;;;5.40;4.90;;;;;;;;;;5035804;28;20206;-77
2023/06/06 04:31:33;;;;;;;6.20;4.87;;;;;;;;;;5048960;28;20664;-77
2023/06/06 04:34:01;;;;;;;7.10;5.00;;;;;;;;;;5044236;28;20230;-77
2023/06/06 04:36:28;;;;;;;6.70;5.03;;;;;;;;;;5040327;28;20257;-78
2023/06/06 04:39:00;;;;;;;9.93;5.40;;;;;;;;;;5047005;28;20627;-78
2023/06/06 04:41:30;;;;;;;9.07;5.53;;;;;;;;;;5032926;28;20764;-78
2023/06/06 04:43:58;;;;;;;6.37;5.50;;;;;;;;;;5044941;28;20201;-78
2023/06/06 04:46:29;;;;;;;7.03;5.33;;;;;;;;;;5039468;28;20226;-78
2023/06/06 04:48:59;;;;;;;4.97;4.57;;;;;;;;;;5044090;28;20317;-77
2023/06/06 04:51:29;;;;;;;6.83;5.07;;;;;;;;;;5045247;28;20214;-77
2023/06/06 04:53:57;;;;;;;6.70;5.37;;;;;;;;;;5041878;28;20234;-77
2023/06/06 04:56:24;;;;;;;5.43;4.93;;;;;;;;;;5042846;28;20230;-77
2023/06/06 04:58:52;;;;;;;7.77;5.23;;;;;;;;;;5036986;28;20238;-77
2023/06/06 05:01:20;;;;;;;5.47;4.97;;;;;;;;;;5052061;28;20226;-77
2023/06/06 05:03:48;;;;;;;7.07;5.13;;;;;;;;;;5050977;28;20202;-77
2023/06/06 05:06:16;;;;;;;6.27;5.33;;;;;;;;;;5037662;28;20962;-77
2023/06/06 05:08:45;;;;;;;6.53;5.50;;;;;;;;;;5044317;28;20256;-77
2023/06/06 05:11:12;;;;;;;8.07;6.27;;;;;;;;;;5038767;28;20309;-78
2023/06/06 05:13:39;;;;;;;10.80;6.07;;;;;;;;;;5041005;28;20229;-78
2023/06/06 05:16:07;;;;;;;11.07;6.70;;;;;;;;;;5049592;28;20260;-79
2023/06/06 05:18:35;;;;;;;8.60;6.27;;;;;;;;;;5052126;28;20332;-78
2023/06/06 05:21:03;;;;;;;6.80;6.20;;;;;;;;;;5042573;28;20253;-79
2023/06/06 05:23:32;;;;;;;7.80;6.30;;;;;;;;;;5043385;28;20207;-80
2023/06/06 05:25:59;;;;;;;8.23;6.40;;;;;;;;;;5050654;28;20813;-79
2023/06/06 05:28:28;;;;;;;11.97;7.97;;;;;;;;;;5041479;28;20237;-79
2023/06/06 05:30:56;;;;;;;12.00;6.47;;;;;;;;;;5032779;28;20297;-80
2023/06/06 05:33:25;;;;;;;9.67;6.67;;;;;;;;;;5041685;28;20698;-79
2023/06/06 05:35:52;;;;;;;7.90;5.90;;;;;;;;;;5050132;28;20230;-80
2023/06/06 05:38:21;;;;;;;7.93;5.30;;;;;;;;;;5043428;28;20241;-80
2023/06/06 05:40:49;;;;;;;6.67;5.33;;;;;;;;;;5049441;28;20279;-80
2023/06/06 05:43:16;;;;;;;9.63;5.63;;;;;;;;;;5047840;28;20194;-81
2023/06/06 05:45:43;;;;;;;7.23;5.67;;;;;;;;;;5045354;28;20267;-81
2023/06/06 05:48:11;;;;;;;6.20;5.50;;;;;;;;;;5043735;28;20226;-81
2023/06/06 05:50:38;;;;;;;8.00;6.33;;;;;;;;;;5035896;28;20236;-82
2023/06/06 05:53:05;;;;;;;6.47;5.10;;;;;;;;;;5048441;28;20747;-80
2023/06/06 05:55:32;;;;;;;7.97;5.83;;;;;;;;;;5046375;28;20234;-81
2023/06/06 05:58:01;;;;;;;5.60;5.10;;;;;;;;;;5040599;28;20233;-80
2023/06/06 06:00:29;;;;;;;7.43;5.40;;;;;;;;;;5040235;28;20225;-80
2023/06/06 06:02:57;;;;;;;6.20;5.37;;;;;;;;;;5048188;28;20619;-81
2023/06/06 06:05:27;;;;;;;7.77;5.30;;;;;;;;;;5048380;28;20287;-80
2023/06/06 06:07:55;;;;;;;7.83;5.63;;;;;;;;;;5041496;28;20235;-80
2023/06/06 06:10:22;;;;;;;8.97;5.40;;;;;;;;;;5039149;28;20744;-81
2023/06/06 06:12:49;;;;;;;8.77;5.10;;;;;;;;;;5045623;28;20600;-81
2023/06/06 06:15:17;;;;;;;10.33;5.60;;;;;;;;;;5043089;28;20348;-80
2023/06/06 06:17:45;;;;;;;9.27;5.60;;;;;;;;;;5038186;28;20230;-80
2023/06/06 06:20:13;;;;;;;8.60;5.47;;;;;;;;;;5040495;28;20234;-80
2023/06/06 06:22:40;;;;;;;6.30;5.10;;;;;;;;;;5049933;28;20300;-81
2023/06/06 06:25:12;;;;;;;11.53;5.50;;;;;;;;;;5042797;28;20283;-80
2023/06/06 06:27:39;;;;;;;5.30;4.80;;;;;;;;;;5043175;28;20221;-80
2023/06/06 06:30:07;;;;;;;7.87;5.33;;;;;;;;;;5039438;28;20317;-80
2023/06/06 06:32:36;;;;;;;8.23;5.30;;;;;;;;;;5039594;28;20205;-80
2023/06/06 06:35:04;;;;;;;5.40;4.90;;;;;;;;;;5039075;28;20230;-80
2023/06/06 06:37:31;;;;;;;9.50;5.13;;;;;;;;;;5033304;28;20234;-80
2023/06/06 06:39:59;;;;;;;5.78;5.20;;;;;;;;;;5042607;28;20233;-80
2023/06/06 06:42:26;;;;;;;11.38;5.75;;;;;;;;;;5048035;28;20676;-80
2023/06/06 06:44:54;;;;;;;6.30;5.53;;;;;;;;;;5044037;28;20234;-80
2023/06/06 06:47:21;;;;;;;5.82;4.95;;;;;;;;;;5042573;28;20276;-80
2023/06/06 06:49:50;;;;;;;5.97;4.90;;;;;;;;;;5034374;28;20281;-80
2023/06/06 06:52:17;;;;;;;6.50;5.07;;;;;;;;;;5049075;28;20210;-80
2023/06/06 06:54:46;;;;;;;4.50;3.88;;;;;;;;;;5036107;28;20645;-79
2023/06/06 06:57:13;;;;;;;5.40;3.40;;;;;;;;;;5048234;28;20308;-79
2023/06/06 06:59:40;;;;;;;4.03;3.72;;;;;;;;;;5052762;28;20268;-80
2023/06/06 07:02:07;;;;;;;4.95;3.38;;;;;;;;;;5037173;28;20206;-80
2023/06/06 07:04:36;;;;;;;4.00;3.60;;;;;;;;;;5038210;28;20299;-80
2023/06/06 07:07:05;;;;;;;5.97;3.38;;;;;;;;;;5052942;28;20237;-80
2023/06/06 07:09:32;;;;;;;4.38;3.38;;;;;;;;;;5049831;28;20235;-79
2023/06/06 07:11:59;;;;;;;3.92;3.63;;;;;;;;;;5034837;28;20206;-80
2023/06/06 07:14:26;;;;;;;3.65;3.28;;;;;;;;;;5041906;28;20321;-80
2023/06/06 07:16:53;;;;;;;4.10;3.30;;;;;;;;;;5050908;28;20259;-80
2023/06/06 07:19:20;;;;;;;4.30;3.47;;;;;;;;;;5052776;28;20242;-80
2023/06/06 07:21:48;;;;;;;4.78;3.22;;;;;;;;;;5044741;28;20304;-80
2023/06/06 07:24:17;;;;;;;3.97;3.58;;;;;;;;;;5045094;28;20567;-80
2023/06/06 07:26:44;;;;;;;3.45;2.90;;;;;;;;;;5044992;28;20249;-82
2023/06/06 07:29:11;;;;;;;3.50;3.20;;;;;;;;;;5041010;28;20577;-81
2023/06/06 07:31:39;;;;;;;3.47;3.15;;;;;;;;;;5041587;28;20210;-82
2023/06/06 07:34:06;;;;;;;4.13;2.97;;;;;;;;;;5048902;28;20218;-80
2023/06/06 07:36:33;;;;;;;4.35;3.28;;;;;;;;;;5041782;28;20297;-80
2023/06/06 07:39:00;;;;;;;3.60;3.20;;;;;;;;;;5042921;28;20348;-79
2023/06/06 07:41:30;;;;;;;4.05;2.70;;;;;;;;;;5042315;28;20199;-81
2023/06/06 07:43:57;;;;;;;2.83;2.40;;;;;;;;;;5049496;28;20293;-81
2023/06/06 07:46:25;;;;;;;3.30;3.00;;;;;;;;;;5038181;28;20697;-81
2023/06/06 07:48:52;;;;;;;5.57;2.95;;;;;;;;;;5041267;28;20321;-81
2023/06/06 07:51:19;;;;;;;3.30;3.00;;;;;;;;;;5041185;28;20227;-81
2023/06/06 07:53:46;;;;;;;3.03;2.80;;;;;;;;;;5041109;28;20618;-82
2023/06/06 07:56:14;;;;;;;3.15;2.70;;;;;;;;;;5043597;28;20738;-80
2023/06/06 07:58:43;;;;;;;4.38;2.90;;;;;;;;;;5048626;28;20230;-81
2023/06/06 08:01:12;;;;;;;4.25;2.83;;;;;;;;;;5043818;28;20257;-81
2023/06/06 08:03:39;;;;;;;3.15;2.90;;;;;;;;;;5045011;28;20222;-80
2023/06/06 08:06:07;;;;;;;3.50;3.20;;;;;;;;;;5035645;28;20643;-80
2023/06/06 08:08:33;;;;;;;3.13;2.53;;;;;;;;;;5043391;28;20585;-81
2023/06/06 08:11:00;;;;;;;4.78;3.53;;;;;;;;;;5052030;28;20277;-80
2023/06/06 08:13:27;;;;;;;3.65;2.88;;;;;;;;;;5052801;28;20660;-80
2023/06/06 08:15:56;;;;;;;3.03;2.55;;;;;;;;;;5044176;28;20288;-80
2023/06/06 08:18:23;;;;;;;2.78;2.53;;;;;;;;;;5045411;28;21001;-81
2023/06/06 08:20:50;;;;;;;3.95;3.03;;;;;;;;;;5040916;28;20377;-81
2023/06/06 08:23:17;;;;;;;2.85;2.47;;;;;;;;;;5044730;28;20210;-81
2023/06/06 08:25:44;;;;;;;3.30;2.80;;;;;;;;;;5044006;28;20666;-81
2023/06/06 08:28:11;;;;;;;3.22;2.60;;;;;;;;;;5042845;28;20218;-81
2023/06/06 08:30:38;;;;;;;4.57;2.67;;;;;;;;;;5045176;28;20728;-80
2023/06/06 08:33:06;;;;;;;3.97;2.55;;;;;;;;;;5043265;28;20266;-81
2023/06/06 08:35:33;;;;;;;5.63;2.80;;;;;;;;;;5052071;28;20810;-81
2023/06/06 08:38:00;;;;;;;3.67;2.47;;;;;;;;;;5043682;28;20230;-80
2023/06/06 08:40:27;;;;;;;3.53;3.03;;;;;;;;;;5051732;28;20229;-81
2023/06/06 08:42:54;;;;;;;4.47;3.08;;;;;;;;;;5050571;28;20206;-81
2023/06/06 08:45:22;;;;;;;3.90;2.88;;;;;;;;;;5036199;28;20749;-81
2023/06/06 08:47:49;;;;;;;3.85;3.05;;;;;;;;;;5042901;28;20230;-82
2023/06/06 08:50:18;;;;;;;3.20;2.90;;;;;;;;;;5031746;28;20238;-81
2023/06/06 08:52:45;;;;;;;3.22;2.90;;;;;;;;;;5032382;28;20207;-81
2023/06/06 08:55:12;;;;;;;3.83;2.85;;;;;;;;;;5042832;28;20229;-81
2023/06/06 08:57:43;;;;;;;3.72;2.72;;;;;;;;;;5036091;28;20234;-81
2023/06/06 09:00:18;;;;;;;3.15;2.85;;;;;;;;;;5034292;28;20234;-81
2023/06/06 09:02:45;;;;;;;3.15;2.95;;;;;;;;;;5051751;28;20206;-81
2023/06/06 09:05:13;;;;;;;4.55;2.80;;;;;;;;;;5050499;28;21023;-81
2023/06/06 09:07:41;;;;;;;4.60;3.20;;;;;;;;;;5046879;28;20656;-81
2023/06/06 09:10:09;;;;;;;3.22;2.92;;;;;;;;;;5041724;28;20234;-81
2023/06/06 09:12:43;;;;;;;3.55;3.25;;;;;;;;;;5037090;28;20203;-81
2023/06/06 09:15:10;;;;;;;3.50;3.13;;;;;;;;;;5039484;28;20288;-82
2023/06/06 09:17:37;;;;;;;5.78;3.70;;;;;;;;;;5031492;28;20254;-82
2023/06/06 09:20:06;;;;;;;3.30;3.00;;;;;;;;;;5041186;28;20233;-82
2023/06/06 09:22:37;;;;;;;4.63;2.95;;;;;;;;;;5045048;28;20261;-81
2023/06/06 09:25:06;;;;;;;6.15;3.83;;;;;;;;;;5039197;28;20285;-81
2023/06/06 09:27:33;;;;;;;5.05;3.33;;;;;;;;;;5043572;28;20614;-81
2023/06/06 09:30:00;;;;;;;3.05;2.80;;;;;;;;;;5040264;28;20235;-81
2023/06/06 09:32:28;;;;;;;5.80;2.72;;;;;;;;;;5046325;28;20214;-82
2023/06/06 09:34:55;;;;;;;3.90;2.88;;;;;;;;;;5046936;28;20238;-81
2023/06/06 09:37:23;;;;;;;3.97;2.83;;;;;;;;;;5030958;28;20839;-81
2023/06/06 09:40:10;;;;;;;4.03;2.80;;;;;;;;;;5030747;28;20285;-81
2023/06/06 09:42:40;;;;;;;4.45;2.70;;;;;;;;;;5039171;28;20874;-81
2023/06/06 09:45:12;;;;;;;3.17;2.80;;;;;;;;;;5049587;28;20272;-81
2023/06/06 09:47:40;;;;;;;4.05;2.60;;;;;;;;;;5036693;28;20230;-82
2023/06/06 09:50:08;;;;;;;3.72;2.58;;;;;;;;;;5031515;28;20234;-82
2023/06/06 09:52:35;;;;;;;2.35;2.15;;;;;;;;;;5039330;28;20206;-81
2023/06/06 09:55:02;;;;;;;2.97;2.60;;;;;;;;;;5040121;28;20238;-81
2023/06/06 09:57:29;;;;;;;3.67;2.53;;;;;;;;;;5045597;28;20601;-82
2023/06/06 09:59:59;;;;;;;3.72;2.92;;;;;;;;;;5031645;28;20238;-81
2023/06/06 10:02:27;;;;;;;2.85;2.60;;;;;;;;;;5043528;28;20660;-82
2023/06/06 10:04:54;;;;;;;3.15;2.60;;;;;;;;;;5042222;28;20242;-81
2023/06/06 10:07:22;;;;;;;3.70;3.03;;;;;;;;;;5042869;28;20233;-82
2023/06/06 10:09:49;;;;;;;5.13;2.53;;;;;;;;;;5042180;28;20246;-81
2023/06/06 10:12:17;;;;;;;3.00;2.67;;;;;;;;;;5041989;28;20739;-82
2023/06/06 10:14:44;;;;;;;4.00;2.50;;;;;;;;;;5043438;28;20238;-82
2023/06/06 10:17:14;;;;;;;3.03;2.72;;;;;;;;;;5032728;28;20228;-82
2023/06/06 10:19:42;;;;;;;5.68;2.88;;;;;;;;;;5049880;28;20317;-82
2023/06/06 10:22:09;;;;;;;3.08;2.78;;;;;;;;;;5031156;28;20221;-82
2023/06/06 10:24:36;;;;;;;2.72;2.53;;;;;;;;;;5036038;28;20238;-81
2023/06/06 10:27:07;;;;;;;3.15;2.63;;;;;;;;;;5048488;28;20233;-82
2023/06/06 10:29:41;;;;;;;2.97;2.70;;;;;;;;;;5030144;28;20234;-82
2023/06/06 10:32:12;;;;;;;3.03;2.80;;;;;;;;;;5035422;28;20213;-81
2023/06/06 10:34:42;;;;;;;2.47;2.13;;;;;;;;;;5029891;28;20308;-81
2023/06/06 10:37:16;;;;;;;3.90;2.78;;;;;;;;;;5038235;28;20230;-81
2023/06/06 10:39:46;;;;;;;4.13;2.83;;;;;;;;;;5044166;28;20651;-81
2023/06/06 10:42:13;;;;;;;4.07;2.65;;;;;;;;;;5030888;28;20880;-81
2023/06/06 10:44:43;;;;;;;3.00;2.70;;;;;;;;;;5044686;28;20283;-81
2023/06/06 10:47:32;;;;;;;3.50;2.47;;;;;;;;;;5039470;28;20218;-85
2023/06/06 10:50:23;;;;;;;3.38;2.63;;;;;;;;;;5035155;28;20728;-86
2023/06/06 10:52:51;;;;;;;3.00;2.60;;;;;;;;;;5034761;28;20629;-84
2023/06/06 10:55:18;;;;;;;3.47;2.55;;;;;;;;;;5049203;28;20754;-85
2023/06/06 10:57:53;;;;;;;2.83;2.63;;;;;;;;;;5038476;28;20234;-85
2023/06/06 11:00:22;;;;;;;3.47;2.30;;;;;;;;;;5035810;28;20893;-84
2023/06/06 11:02:49;;;;;;;2.50;2.30;;;;;;;;;;5038771;28;20215;-85
2023/06/06 11:05:18;;;;;;;2.80;2.60;;;;;;;;;;5038324;28;20238;-85
2023/06/06 11:07:50;;;;;;;3.08;2.78;;;;;;;;;;5037120;28;20242;-85
2023/06/06 11:10:21;;;;;;;3.67;2.80;;;;;;;;;;5046769;28;20244;-84
2023/06/06 11:12:49;;;;;;;5.57;2.72;;;;;;;;;;5038606;28;20290;-86
2023/06/06 11:15:27;;;;;;;3.40;3.10;;;;;;;;;;5040816;28;20238;-85
2023/06/06 11:18:00;;;;;;;2.63;2.42;;;;;;;;;;5046255;28;20261;-84
2023/06/06 11:20:28;;;;;;;2.55;2.35;;;;;;;;;;5036890;28;20225;-86
2023/06/06 11:23:02;;;;;;;3.15;2.42;;;;;;;;;;5042421;28;20206;-87
2023/06/06 11:25:30;;;;;;;3.38;2.72;;;;;;;;;;5029971;28;20226;-86
2023/06/06 11:27:58;;;;;;;2.88;2.67;;;;;;;;;;5039613;28;20230;-86
2023/06/06 11:30:25;;;;;;;2.45;2.25;;;;;;;;;;5051587;28;20311;-87
2023/06/06 11:32:52;;;;;;;4.95;2.65;;;;;;;;;;5045577;28;20208;-86
2023/06/06 11:35:20;;;;;;;3.22;2.80;;;;;;;;;;5041865;28;20586;-87
2023/06/06 11:37:47;;;;;;;3.25;2.92;;;;;;;;;;5040752;28;20316;-86
2023/06/06 11:40:16;;;;;;;5.07;2.83;;;;;;;;;;5051866;28;20257;-87
2023/06/06 11:42:43;;;;;;;3.38;3.08;;;;;;;;;;5047808;28;20229;-87
2023/06/06 11:45:14;;;;;;;3.25;2.67;;;;;;;;;;5051480;28;20249;-86
2023/06/06 11:47:41;;;;;;;4.63;2.30;;;;;;;;;;5039394;28;20234;-86
2023/06/06 11:50:09;;;;;;;3.63;2.50;;;;;;;;;;5040392;28;20241;-87
2023/06/06 11:52:44;;;;;;;2.83;2.20;;;;;;;;;;5047000;28;20201;-86
2023/06/06 11:55:11;;;;;;;3.97;2.88;;;;;;;;;;5036232;28;20320;-86
2023/06/06 11:57:40;;;;;;;2.60;2.40;;;;;;;;;;5045354;28;20271;-86
2023/06/06 12:00:10;;;;;;;2.85;2.58;;;;;;;;;;5042676;28;20233;-86
2023/06/06 12:02:37;;;;;;;3.38;2.55;;;;;;;;;;5041814;28;20233;-85
2023/06/06 12:05:05;;;;;;;3.45;2.88;;;;;;;;;;5040822;28;20606;-85
2023/06/06 12:07:32;;;;;;;2.35;2.13;;;;;;;;;;5046005;28;20237;-87
2023/06/06 12:09:59;;;;;;;2.75;2.55;;;;;;;;;;5042802;28;20229;-86
2023/06/06 12:12:26;;;;;;;3.70;2.40;;;;;;;;;;5044860;28;20232;-86
2023/06/06 12:14:58;;;;;;;2.53;2.33;;;;;;;;;;5037032;28;20603;-87
2023/06/06 12:17:27;;;;;;;2.47;2.28;;;;;;;;;;5041024;28;20280;-82
2023/06/06 12:19:54;;;;;;;2.60;2.40;;;;;;;;;;5045387;28;20229;-82
2023/06/06 12:22:29;;;;;;;4.70;2.42;;;;;;;;;;5044518;28;20604;-83
2023/06/06 12:24:56;;;;;;;3.78;2.28;;;;;;;;;;5051734;28;20275;-81
2023/06/06 12:27:27;;;;;;;3.10;2.67;;;;;;;;;;5044570;28;20263;-81
2023/06/06 12:29:55;;;;;;;9.40;3.08;;;;;;;;;;5040538;28;20263;-83
2023/06/06 12:32:25;;;;;;;3.42;2.90;;;;;;;;;;5044395;28;20205;-83
2023/06/06 12:34:59;;;;;;;5.70;2.50;;;;;;;;;;5043882;28;20226;-83
2023/06/06 12:37:35;;;;;;;5.15;3.45;;;;;;;;;;5040651;28;20226;-82
2023/06/06 12:40:09;;;;;;;2.78;2.55;;;;;;;;;;5040319;28;20735;-81
2023/06/06 12:42:36;;;;;;;2.63;2.42;;;;;;;;;;5047492;28;20622;-81
2023/06/06 12:45:03;;;;;;;3.00;2.70;;;;;;;;;;5048614;28;20233;-82
2023/06/06 12:47:32;;;;;;;8.55;2.92;;;;;;;;;;5045517;28;20229;-81
2023/06/06 12:50:00;;;;;;;2.20;2.10;;;;;;;;;;5039422;28;20720;-82
2023/06/06 12:52:28;;;;;;;4.07;2.58;;;;;;;;;;5040430;28;20724;-81
2023/06/06 12:54:55;;;;;;;3.50;2.20;;;;;;;;;;5039936;28;20607;-82
2023/06/06 12:57:22;;;;;;;3.28;2.80;;;;;;;;;;5048166;28;20226;-81
2023/06/06 12:59:49;;;;;;;5.13;2.50;;;;;;;;;;5044183;28;20237;-81
2023/06/06 13:02:17;;;;;;;3.15;2.10;;;;;;;;;;5035835;28;20211;-81
2023/06/06 13:04:46;;;;;;;3.28;2.45;;;;;;;;;;5043029;28;20230;-81
2023/06/06 13:07:14;;;;;;;2.47;2.28;;;;;;;;;;5049239;28;20730;-82
2023/06/06 13:09:41;;;;;;;6.32;2.30;;;;;;;;;;5047542;28;20361;-82
2023/06/06 13:12:08;;;;;;;2.55;2.35;;;;;;;;;;5049107;28;20559;-82
2023/06/06 13:14:36;;;;;;;2.75;2.45;;;;;;;;;;5039357;28;20639;-81
2023/06/06 13:17:03;;;;;;;4.05;2.38;;;;;;;;;;5040312;28;20250;-82
2023/06/06 13:19:30;;;;;;;3.03;2.58;;;;;;;;;;5037306;28;20234;-82
2023/06/06 13:21:59;;;;;;;3.05;2.75;;;;;;;;;;5042715;28;20309;-82
2023/06/06 13:24:26;;;;;;;4.18;2.28;;;;;;;;;;5039725;28;20309;-81
2023/06/06 13:26:53;;;;;;;4.40;2.60;;;;;;;;;;5038535;28;20209;-82
2023/06/06 13:29:20;;;;;;;3.38;2.70;;;;;;;;;;5042164;28;20246;-82
2023/06/06 13:31:47;;;;;;;2.78;2.30;;;;;;;;;;5049385;28;20210;-82
2023/06/06 13:34:14;;;;;;;2.90;2.42;;;;;;;;;;5047184;28;20232;-81
2023/06/06 13:36:41;;;;;;;2.53;2.33;;;;;;;;;;5042906;28;20264;-82
2023/06/06 13:39:10;;;;;;;2.85;2.60;;;;;;;;;;5048829;28;20210;-82
2023/06/06 13:41:37;;;;;;;2.97;2.22;;;;;;;;;;5036273;28;20304;-82
2023/06/06 13:44:04;;;;;;;2.55;2.30;;;;;;;;;;5042554;28;20644;-81
2023/06/06 13:46:32;;;;;;;4.32;2.30;;;;;;;;;;5044050;28;20305;-81
2023/06/06 13:49:01;;;;;;;2.60;2.40;;;;;;;;;;5034644;28;20226;-81
2023/06/06 13:51:28;;;;;;;3.70;2.45;;;;;;;;;;5041561;28;20222;-81
2023/06/06 13:53:57;;;;;;;2.70;2.40;;;;;;;;;;5031858;28;20206;-81
2023/06/06 13:56:27;;;;;;;3.55;2.35;;;;;;;;;;5036149;28;20741;-83
2023/06/06 13:58:55;;;;;;;4.05;2.42;;;;;;;;;;5038849;28;20252;-83
2023/06/06 14:01:22;;;;;;;2.72;2.20;;;;;;;;;;5033004;28;20261;-84
2023/06/06 14:03:49;;;;;;;3.38;2.38;;;;;;;;;;5050552;28;20556;-83
2023/06/06 14:06:16;;;;;;;4.43;2.33;;;;;;;;;;5050060;28;20872;-83
2023/06/06 14:08:43;;;;;;;2.45;2.25;;;;;;;;;;5042023;28;20280;-82
2023/06/06 14:11:11;;;;;;;2.47;2.28;;;;;;;;;;5042142;28;20421;-82
2023/06/06 14:13:40;;;;;;;2.55;2.35;;;;;;;;;;5042565;28;20296;-82
2023/06/06 14:16:07;;;;;;;2.40;2.20;;;;;;;;;;5042015;28;20321;-83
2023/06/06 14:18:34;;;;;;;4.05;2.33;;;;;;;;;;5034217;28;20237;-83
2023/06/06 14:21:19;;;;;;;2.67;2.30;;;;;;;;;;5041614;28;20248;-83
2023/06/06 14:23:47;;;;;;;2.42;2.28;;;;;;;;;;5036461;28;20224;-81
2023/06/06 14:26:14;;;;;;;2.53;1.92;;;;;;;;;;5047869;28;20233;-82
2023/06/06 14:28:43;;;;;;;2.92;1.70;;;;;;;;;;5043136;28;20240;-82
2023/06/06 14:31:10;;;;;;;4.22;1.90;;;;;;;;;;5038365;28;20231;-83
2023/06/06 14:33:38;;;;;;;2.50;2.30;;;;;;;;;;5041186;28;20213;-81
2023/06/06 14:36:05;;;;;;;4.80;2.15;;;;;;;;;;5046262;28;20322;-82
2023/06/06 14:38:33;;;;;;;4.18;2.05;;;;;;;;;;5038663;28;20233;-81
2023/06/06 14:41:00;;;;;;;2.33;2.13;;;;;;;;;;5029758;28;20322;-82
2023/06/06 14:43:27;;;;;;;2.65;2.05;;;;;;;;;;5049305;28;20210;-81
2023/06/06 14:45:55;;;;;;;2.38;2.17;;;;;;;;;;5040631;28;20221;-82
2023/06/06 14:48:22;;;;;;;2.05;1.95;;;;;;;;;;5032596;28;20284;-81